sensor_id;sensor_type;location;lat;lon;timestamp;P1;durP1;ratioP1;P2;durP2;ratioP2
20232;SDS011;37438;55.674;13.074;2023-10-13T00:01:44;27.80;;;4.45;;
20232;SDS011;37438;55.674;13.074;2023-10-13T00:04:51;26.75;;;5.82;;
20232;SDS011;37438;55.674;13.074;2023-10-13T00:08:00;40.30;;;6.10;;
20232;SDS011;37438;55.674;13.074;2023-10-13T00:11:05;29.55;;;5.97;;
20232;SDS011;37438;55.674;13.074;2023-10-13T00:14:13;22.77;;;4.68;;
20232;SDS011;37438;55.674;13.074;2023-10-13T00:17:20;19.80;;;4.55;;
20232;SDS011;37438;55.674;13.074;2023-10-13T00:20:29;28.58;;;5.07;;
20232;SDS011;37438;55.674;13.074;2023-10-13T00:23:42;15.23;;;3.45;;
20232;SDS011;37438;55.674;13.074;2023-10-13T00:26:56;32.95;;;5.63;;
20232;SDS011;37438;55.674;13.074;2023-10-13T00:30:05;23.33;;;4.28;;
20232;SDS011;37438;55.674;13.074;2023-10-13T00:33:26;22.77;;;4.25;;
20232;SDS011;37438;55.674;13.074;2023-10-13T00:39:38;29.33;;;4.57;;
20232;SDS011;37438;55.674;13.074;2023-10-13T00:42:49;34.58;;;6.30;;
20232;SDS011;37438;55.674;13.074;2023-10-13T00:45:58;30.23;;;4.45;;
20232;SDS011;37438;55.674;13.074;2023-10-13T00:49:07;28.73;;;4.22;;
20232;SDS011;37438;55.674;13.074;2023-10-13T00:52:13;25.48;;;4.97;;
20232;SDS011;37438;55.674;13.074;2023-10-13T00:55:20;26.92;;;4.70;;
20232;SDS011;37438;55.674;13.074;2023-10-13T00:58:26;26.92;;;4.25;;
20232;SDS011;37438;55.674;13.074;2023-10-13T01:01:32;30.48;;;4.32;;
20232;SDS011;37438;55.674;13.074;2023-10-13T01:04:38;23.27;;;3.58;;
20232;SDS011;37438;55.674;13.074;2023-10-13T01:07:43;18.40;;;4.47;;
20232;SDS011;37438;55.674;13.074;2023-10-13T01:10:50;25.35;;;4.57;;
20232;SDS011;37438;55.674;13.074;2023-10-13T01:13:55;21.27;;;3.67;;
20232;SDS011;37438;55.674;13.074;2023-10-13T01:17:01;24.00;;;5.45;;
20232;SDS011;37438;55.674;13.074;2023-10-13T01:20:08;30.80;;;4.35;;
20232;SDS011;37438;55.674;13.074;2023-10-13T01:23:16;19.23;;;4.22;;
20232;SDS011;37438;55.674;13.074;2023-10-13T01:26:28;35.90;;;4.70;;
20232;SDS011;37438;55.674;13.074;2023-10-13T01:29:32;28.70;;;4.72;;
20232;SDS011;37438;55.674;13.074;2023-10-13T01:32:37;18.90;;;3.80;;
20232;SDS011;37438;55.674;13.074;2023-10-13T01:35:47;26.50;;;4.65;;
20232;SDS011;37438;55.674;13.074;2023-10-13T01:38:52;26.83;;;4.57;;
20232;SDS011;37438;55.674;13.074;2023-10-13T01:41:57;27.92;;;4.63;;
20232;SDS011;37438;55.674;13.074;2023-10-13T01:45:03;26.13;;;4.57;;
20232;SDS011;37438;55.674;13.074;2023-10-13T01:48:11;27.40;;;5.03;;
20232;SDS011;37438;55.674;13.074;2023-10-13T01:51:19;23.05;;;4.60;;
20232;SDS011;37438;55.674;13.074;2023-10-13T01:54:26;29.55;;;4.70;;
20232;SDS011;37438;55.674;13.074;2023-10-13T01:57:32;22.10;;;4.90;;
20232;SDS011;37438;55.674;13.074;2023-10-13T02:00:36;23.08;;;4.32;;
20232;SDS011;37438;55.674;13.074;2023-10-13T02:03:45;30.35;;;3.83;;
20232;SDS011;37438;55.674;13.074;2023-10-13T02:06:51;29.80;;;4.50;;
20232;SDS011;37438;55.674;13.074;2023-10-13T02:09:56;26.33;;;4.07;;
20232;SDS011;37438;55.674;13.074;2023-10-13T02:13:01;19.45;;;3.42;;
20232;SDS011;37438;55.674;13.074;2023-10-13T02:16:08;24.35;;;3.70;;
20232;SDS011;37438;55.674;13.074;2023-10-13T02:19:13;24.30;;;4.10;;
20232;SDS011;37438;55.674;13.074;2023-10-13T02:22:20;27.05;;;4.57;;
20232;SDS011;37438;55.674;13.074;2023-10-13T02:25:34;30.00;;;4.65;;
20232;SDS011;37438;55.674;13.074;2023-10-13T02:28:40;23.15;;;3.90;;
20232;SDS011;37438;55.674;13.074;2023-10-13T02:31:45;27.05;;;4.68;;
20232;SDS011;37438;55.674;13.074;2023-10-13T02:34:58;19.42;;;3.45;;
20232;SDS011;37438;55.674;13.074;2023-10-13T02:38:10;21.30;;;4.35;;
20232;SDS011;37438;55.674;13.074;2023-10-13T02:41:16;24.63;;;4.28;;
20232;SDS011;37438;55.674;13.074;2023-10-13T02:44:31;30.05;;;5.30;;
20232;SDS011;37438;55.674;13.074;2023-10-13T02:47:40;29.27;;;5.57;;
20232;SDS011;37438;55.674;13.074;2023-10-13T02:50:55;24.08;;;4.40;;
20232;SDS011;37438;55.674;13.074;2023-10-13T02:54:01;26.40;;;3.80;;
20232;SDS011;37438;55.674;13.074;2023-10-13T02:57:22;25.88;;;5.32;;
20232;SDS011;37438;55.674;13.074;2023-10-13T03:00:28;19.60;;;4.25;;
20232;SDS011;37438;55.674;13.074;2023-10-13T03:03:36;23.63;;;4.80;;
20232;SDS011;37438;55.674;13.074;2023-10-13T03:06:41;28.77;;;3.65;;
20232;SDS011;37438;55.674;13.074;2023-10-13T03:12:55;27.83;;;5.05;;
20232;SDS011;37438;55.674;13.074;2023-10-13T03:16:00;18.73;;;3.28;;
20232;SDS011;37438;55.674;13.074;2023-10-13T03:19:08;19.75;;;3.60;;
20232;SDS011;37438;55.674;13.074;2023-10-13T03:22:14;18.67;;;3.65;;
20232;SDS011;37438;55.674;13.074;2023-10-13T03:25:20;28.05;;;3.95;;
20232;SDS011;37438;55.674;13.074;2023-10-13T03:28:32;30.90;;;3.83;;
20232;SDS011;37438;55.674;13.074;2023-10-13T03:31:38;14.27;;;3.45;;
20232;SDS011;37438;55.674;13.074;2023-10-13T03:34:43;20.45;;;3.13;;
20232;SDS011;37438;55.674;13.074;2023-10-13T03:37:57;23.63;;;3.60;;
20232;SDS011;37438;55.674;13.074;2023-10-13T03:41:02;25.98;;;4.75;;
20232;SDS011;37438;55.674;13.074;2023-10-13T03:44:23;30.65;;;4.53;;
20232;SDS011;37438;55.674;13.074;2023-10-13T03:47:34;16.35;;;3.28;;
20232;SDS011;37438;55.674;13.074;2023-10-13T03:50:42;31.90;;;5.25;;
20232;SDS011;37438;55.674;13.074;2023-10-13T03:53:51;19.27;;;3.35;;
20232;SDS011;37438;55.674;13.074;2023-10-13T03:56:59;21.05;;;3.17;;
20232;SDS011;37438;55.674;13.074;2023-10-13T04:00:08;31.70;;;4.75;;
20232;SDS011;37438;55.674;13.074;2023-10-13T04:03:15;21.45;;;2.97;;
20232;SDS011;37438;55.674;13.074;2023-10-13T04:06:23;30.38;;;4.07;;
20232;SDS011;37438;55.674;13.074;2023-10-13T04:09:48;11.05;;;3.13;;
20232;SDS011;37438;55.674;13.074;2023-10-13T04:12:52;20.17;;;4.05;;
20232;SDS011;37438;55.674;13.074;2023-10-13T04:16:16;18.92;;;4.07;;
20232;SDS011;37438;55.674;13.074;2023-10-13T04:19:39;22.85;;;2.90;;
20232;SDS011;37438;55.674;13.074;2023-10-13T04:23:03;26.90;;;4.85;;
20232;SDS011;37438;55.674;13.074;2023-10-13T04:26:22;28.85;;;4.20;;
20232;SDS011;37438;55.674;13.074;2023-10-13T04:29:40;24.65;;;4.07;;
20232;SDS011;37438;55.674;13.074;2023-10-13T04:32:50;29.10;;;4.15;;
20232;SDS011;37438;55.674;13.074;2023-10-13T04:36:14;31.10;;;4.05;;
20232;SDS011;37438;55.674;13.074;2023-10-13T04:39:31;19.60;;;3.30;;
20232;SDS011;37438;55.674;13.074;2023-10-13T04:42:39;25.05;;;3.83;;
20232;SDS011;37438;55.674;13.074;2023-10-13T04:46:08;24.13;;;3.83;;
20232;SDS011;37438;55.674;13.074;2023-10-13T04:49:39;20.88;;;3.55;;
20232;SDS011;37438;55.674;13.074;2023-10-13T04:52:47;25.20;;;3.55;;
20232;SDS011;37438;55.674;13.074;2023-10-13T04:56:05;23.95;;;3.50;;
20232;SDS011;37438;55.674;13.074;2023-10-13T04:59:33;23.98;;;4.82;;
20232;SDS011;37438;55.674;13.074;2023-10-13T05:02:47;35.95;;;3.70;;
20232;SDS011;37438;55.674;13.074;2023-10-13T05:06:05;16.85;;;3.45;;
20232;SDS011;37438;55.674;13.074;2023-10-13T05:09:45;20.42;;;3.47;;
20232;SDS011;37438;55.674;13.074;2023-10-13T05:13:09;22.05;;;5.00;;
20232;SDS011;37438;55.674;13.074;2023-10-13T05:16:32;15.68;;;3.38;;
20232;SDS011;37438;55.674;13.074;2023-10-13T05:19:57;23.05;;;3.85;;
20232;SDS011;37438;55.674;13.074;2023-10-13T05:23:21;17.40;;;3.10;;
20232;SDS011;37438;55.674;13.074;2023-10-13T05:26:44;18.70;;;3.60;;
20232;SDS011;37438;55.674;13.074;2023-10-13T05:30:08;23.67;;;3.03;;
20232;SDS011;37438;55.674;13.074;2023-10-13T05:33:32;26.73;;;3.65;;
20232;SDS011;37438;55.674;13.074;2023-10-13T05:36:56;27.15;;;4.70;;
20232;SDS011;37438;55.674;13.074;2023-10-13T05:40:19;22.98;;;3.38;;
20232;SDS011;37438;55.674;13.074;2023-10-13T05:43:43;27.42;;;4.25;;
20232;SDS011;37438;55.674;13.074;2023-10-13T05:47:07;22.65;;;3.80;;
20232;SDS011;37438;55.674;13.074;2023-10-13T05:50:47;29.50;;;4.30;;
20232;SDS011;37438;55.674;13.074;2023-10-13T05:54:21;17.50;;;2.78;;
20232;SDS011;37438;55.674;13.074;2023-10-13T05:57:26;20.52;;;3.67;;
20232;SDS011;37438;55.674;13.074;2023-10-13T06:00:49;15.45;;;3.33;;
20232;SDS011;37438;55.674;13.074;2023-10-13T06:04:12;16.80;;;3.20;;
20232;SDS011;37438;55.674;13.074;2023-10-13T06:07:36;24.58;;;3.55;;
20232;SDS011;37438;55.674;13.074;2023-10-13T06:11:02;29.25;;;3.70;;
20232;SDS011;37438;55.674;13.074;2023-10-13T06:14:26;21.90;;;3.30;;
20232;SDS011;37438;55.674;13.074;2023-10-13T06:17:50;17.98;;;3.50;;
20232;SDS011;37438;55.674;13.074;2023-10-13T06:21:33;18.73;;;4.05;;
20232;SDS011;37438;55.674;13.074;2023-10-13T06:24:56;16.98;;;3.85;;
20232;SDS011;37438;55.674;13.074;2023-10-13T06:28:20;26.23;;;4.43;;
20232;SDS011;37438;55.674;13.074;2023-10-13T06:31:43;31.58;;;4.78;;
20232;SDS011;37438;55.674;13.074;2023-10-13T06:34:50;14.73;;;3.20;;
20232;SDS011;37438;55.674;13.074;2023-10-13T06:37:55;24.13;;;3.88;;
20232;SDS011;37438;55.674;13.074;2023-10-13T06:41:05;23.20;;;4.18;;
20232;SDS011;37438;55.674;13.074;2023-10-13T06:44:10;22.27;;;3.40;;
20232;SDS011;37438;55.674;13.074;2023-10-13T06:47:19;30.65;;;4.20;;
20232;SDS011;37438;55.674;13.074;2023-10-13T06:50:25;27.95;;;4.20;;
20232;SDS011;37438;55.674;13.074;2023-10-13T06:53:31;22.00;;;3.00;;
20232;SDS011;37438;55.674;13.074;2023-10-13T06:56:40;23.25;;;3.55;;
20232;SDS011;37438;55.674;13.074;2023-10-13T06:59:48;19.80;;;3.53;;
20232;SDS011;37438;55.674;13.074;2023-10-13T07:02:55;25.85;;;4.57;;
20232;SDS011;37438;55.674;13.074;2023-10-13T07:06:11;22.70;;;4.07;;
20232;SDS011;37438;55.674;13.074;2023-10-13T07:09:22;18.13;;;2.55;;
20232;SDS011;37438;55.674;13.074;2023-10-13T07:12:39;22.52;;;3.47;;
20232;SDS011;37438;55.674;13.074;2023-10-13T07:15:47;19.60;;;2.42;;
20232;SDS011;37438;55.674;13.074;2023-10-13T07:18:52;18.38;;;3.97;;
20232;SDS011;37438;55.674;13.074;2023-10-13T07:21:59;20.02;;;2.58;;
20232;SDS011;37438;55.674;13.074;2023-10-13T07:25:23;18.10;;;4.22;;
20232;SDS011;37438;55.674;13.074;2023-10-13T07:28:31;12.43;;;2.17;;
20232;SDS011;37438;55.674;13.074;2023-10-13T07:31:39;13.30;;;2.10;;
20232;SDS011;37438;55.674;13.074;2023-10-13T07:34:49;15.77;;;3.10;;
20232;SDS011;37438;55.674;13.074;2023-10-13T07:37:54;10.68;;;1.85;;
20232;SDS011;37438;55.674;13.074;2023-10-13T07:44:11;11.73;;;1.67;;
20232;SDS011;37438;55.674;13.074;2023-10-13T07:47:17;11.05;;;1.88;;
20232;SDS011;37438;55.674;13.074;2023-10-13T07:50:24;19.42;;;3.33;;
20232;SDS011;37438;55.674;13.074;2023-10-13T07:53:32;10.65;;;1.67;;
20232;SDS011;37438;55.674;13.074;2023-10-13T07:56:43;11.55;;;1.95;;
20232;SDS011;37438;55.674;13.074;2023-10-13T07:59:48;11.73;;;1.95;;
20232;SDS011;37438;55.674;13.074;2023-10-13T08:02:57;11.50;;;2.03;;
20232;SDS011;37438;55.674;13.074;2023-10-13T08:06:14;7.72;;;1.58;;
20232;SDS011;37438;55.674;13.074;2023-10-13T08:09:22;16.30;;;2.47;;
20232;SDS011;37438;55.674;13.074;2023-10-13T08:12:44;18.70;;;2.78;;
20232;SDS011;37438;55.674;13.074;2023-10-13T08:15:49;13.13;;;2.55;;
20232;SDS011;37438;55.674;13.074;2023-10-13T08:18:54;15.95;;;2.20;;
20232;SDS011;37438;55.674;13.074;2023-10-13T08:21:59;16.15;;;2.40;;
20232;SDS011;37438;55.674;13.074;2023-10-13T08:25:24;14.25;;;2.97;;
20232;SDS011;37438;55.674;13.074;2023-10-13T08:28:49;7.20;;;1.25;;
20232;SDS011;37438;55.674;13.074;2023-10-13T08:32:01;10.52;;;2.08;;
20232;SDS011;37438;55.674;13.074;2023-10-13T08:35:18;13.85;;;1.95;;
20232;SDS011;37438;55.674;13.074;2023-10-13T08:38:47;16.08;;;3.00;;
20232;SDS011;37438;55.674;13.074;2023-10-13T08:41:55;17.08;;;1.88;;
20232;SDS011;37438;55.674;13.074;2023-10-13T08:45:16;11.43;;;2.05;;
20232;SDS011;37438;55.674;13.074;2023-10-13T08:48:27;14.20;;;2.67;;
20232;SDS011;37438;55.674;13.074;2023-10-13T08:51:35;17.65;;;3.17;;
20232;SDS011;37438;55.674;13.074;2023-10-13T08:54:53;9.45;;;2.30;;
20232;SDS011;37438;55.674;13.074;2023-10-13T08:58:16;12.88;;;2.20;;
20232;SDS011;37438;55.674;13.074;2023-10-13T09:01:25;7.78;;;2.28;;
20232;SDS011;37438;55.674;13.074;2023-10-13T09:04:45;10.23;;;2.67;;
20232;SDS011;37438;55.674;13.074;2023-10-13T09:07:51;9.05;;;3.22;;
20232;SDS011;37438;55.674;13.074;2023-10-13T09:11:07;9.70;;;2.83;;
20232;SDS011;37438;55.674;13.074;2023-10-13T09:14:17;5.32;;;2.65;;
20232;SDS011;37438;55.674;13.074;2023-10-13T09:17:41;6.45;;;2.03;;
20232;SDS011;37438;55.674;13.074;2023-10-13T09:20:59;6.60;;;2.17;;
20232;SDS011;37438;55.674;13.074;2023-10-13T09:24:23;8.80;;;3.22;;
20232;SDS011;37438;55.674;13.074;2023-10-13T09:27:34;5.28;;;1.85;;
20232;SDS011;37438;55.674;13.074;2023-10-13T09:30:45;8.98;;;1.95;;
20232;SDS011;37438;55.674;13.074;2023-10-13T09:33:49;3.75;;;1.77;;
20232;SDS011;37438;55.674;13.074;2023-10-13T09:39:59;5.80;;;2.50;;
20232;SDS011;37438;55.674;13.074;2023-10-13T09:43:09;5.20;;;2.85;;
20232;SDS011;37438;55.674;13.074;2023-10-13T09:46:19;7.55;;;3.08;;
20232;SDS011;37438;55.674;13.074;2023-10-13T09:49:27;10.05;;;4.88;;
20232;SDS011;37438;55.674;13.074;2023-10-13T09:52:49;17.35;;;5.60;;
20232;SDS011;37438;55.674;13.074;2023-10-13T09:56:05;12.93;;;5.28;;
20232;SDS011;37438;55.674;13.074;2023-10-13T09:59:32;14.63;;;7.90;;
20232;SDS011;37438;55.674;13.074;2023-10-13T10:02:40;9.23;;;5.50;;
20232;SDS011;37438;55.674;13.074;2023-10-13T10:05:58;14.52;;;6.47;;
20232;SDS011;37438;55.674;13.074;2023-10-13T10:09:28;13.07;;;6.85;;
20232;SDS011;37438;55.674;13.074;2023-10-13T10:12:47;18.45;;;6.25;;
20232;SDS011;37438;55.674;13.074;2023-10-13T10:15:54;17.42;;;6.97;;
20232;SDS011;37438;55.674;13.074;2023-10-13T10:19:00;17.95;;;6.55;;
20232;SDS011;37438;55.674;13.074;2023-10-13T10:22:11;15.45;;;7.40;;
20232;SDS011;37438;55.674;13.074;2023-10-13T10:25:28;15.60;;;8.07;;
20232;SDS011;37438;55.674;13.074;2023-10-13T10:28:36;24.77;;;7.97;;
20232;SDS011;37438;55.674;13.074;2023-10-13T10:31:42;17.83;;;7.57;;
20232;SDS011;37438;55.674;13.074;2023-10-13T10:34:50;19.00;;;8.63;;
20232;SDS011;37438;55.674;13.074;2023-10-13T10:38:11;17.10;;;7.05;;
20232;SDS011;37438;55.674;13.074;2023-10-13T10:41:28;17.30;;;7.70;;
20232;SDS011;37438;55.674;13.074;2023-10-13T10:44:49;16.10;;;6.72;;
20232;SDS011;37438;55.674;13.074;2023-10-13T10:47:59;16.45;;;7.70;;
20232;SDS011;37438;55.674;13.074;2023-10-13T10:51:20;19.88;;;9.73;;
20232;SDS011;37438;55.674;13.074;2023-10-13T10:54:25;23.65;;;9.00;;
20232;SDS011;37438;55.674;13.074;2023-10-13T10:57:35;24.63;;;10.07;;
20232;SDS011;37438;55.674;13.074;2023-10-13T11:00:41;18.73;;;9.70;;
20232;SDS011;37438;55.674;13.074;2023-10-13T11:03:53;20.85;;;10.25;;
20232;SDS011;37438;55.674;13.074;2023-10-13T11:07:01;24.63;;;10.57;;
20232;SDS011;37438;55.674;13.074;2023-10-13T11:10:10;22.95;;;11.75;;
20232;SDS011;37438;55.674;13.074;2023-10-13T11:13:21;19.63;;;9.77;;
20232;SDS011;37438;55.674;13.074;2023-10-13T11:16:26;24.65;;;13.02;;
20232;SDS011;37438;55.674;13.074;2023-10-13T11:19:39;26.80;;;12.05;;
20232;SDS011;37438;55.674;13.074;2023-10-13T11:22:45;23.08;;;12.43;;
20232;SDS011;37438;55.674;13.074;2023-10-13T11:25:57;25.23;;;12.38;;
20232;SDS011;37438;55.674;13.074;2023-10-13T11:29:06;21.02;;;11.38;;
20232;SDS011;37438;55.674;13.074;2023-10-13T11:32:14;17.75;;;10.95;;
20232;SDS011;37438;55.674;13.074;2023-10-13T11:35:24;17.95;;;9.93;;
20232;SDS011;37438;55.674;13.074;2023-10-13T11:38:29;15.77;;;9.30;;
20232;SDS011;37438;55.674;13.074;2023-10-13T11:41:52;12.57;;;8.00;;
20232;SDS011;37438;55.674;13.074;2023-10-13T11:45:00;12.55;;;8.15;;
20232;SDS011;37438;55.674;13.074;2023-10-13T11:48:28;14.85;;;9.65;;
20232;SDS011;37438;55.674;13.074;2023-10-13T11:51:40;14.45;;;8.40;;
20232;SDS011;37438;55.674;13.074;2023-10-13T11:54:49;13.35;;;8.25;;
20232;SDS011;37438;55.674;13.074;2023-10-13T11:57:54;10.95;;;7.53;;
20232;SDS011;37438;55.674;13.074;2023-10-13T12:01:03;8.63;;;6.38;;
20232;SDS011;37438;55.674;13.074;2023-10-13T12:04:16;7.85;;;6.45;;
20232;SDS011;37438;55.674;13.074;2023-10-13T12:07:37;12.18;;;7.55;;
20232;SDS011;37438;55.674;13.074;2023-10-13T12:10:52;11.27;;;7.35;;
20232;SDS011;37438;55.674;13.074;2023-10-13T12:14:04;14.40;;;7.18;;
20232;SDS011;37438;55.674;13.074;2023-10-13T12:17:25;11.32;;;6.45;;
20232;SDS011;37438;55.674;13.074;2023-10-13T12:20:38;12.38;;;6.45;;
20232;SDS011;37438;55.674;13.074;2023-10-13T12:23:49;9.63;;;6.28;;
20232;SDS011;37438;55.674;13.074;2023-10-13T12:26:56;15.15;;;6.68;;
20232;SDS011;37438;55.674;13.074;2023-10-13T12:30:01;7.20;;;5.10;;
20232;SDS011;37438;55.674;13.074;2023-10-13T12:33:17;6.32;;;4.15;;
20232;SDS011;37438;55.674;13.074;2023-10-13T12:36:28;7.95;;;4.45;;
20232;SDS011;37438;55.674;13.074;2023-10-13T12:39:45;4.25;;;3.75;;
20232;SDS011;37438;55.674;13.074;2023-10-13T12:43:09;6.93;;;4.00;;
20232;SDS011;37438;55.674;13.074;2023-10-13T12:46:33;5.97;;;4.47;;
20232;SDS011;37438;55.674;13.074;2023-10-13T12:49:56;6.43;;;4.55;;
20232;SDS011;37438;55.674;13.074;2023-10-13T12:53:12;11.07;;;5.72;;
20232;SDS011;37438;55.674;13.074;2023-10-13T12:56:18;7.30;;;4.93;;
20232;SDS011;37438;55.674;13.074;2023-10-13T12:59:30;8.60;;;4.55;;
20232;SDS011;37438;55.674;13.074;2023-10-13T13:02:34;10.55;;;5.05;;
20232;SDS011;37438;55.674;13.074;2023-10-13T13:05:43;13.10;;;5.13;;
20232;SDS011;37438;55.674;13.074;2023-10-13T13:08:49;10.68;;;5.22;;
20232;SDS011;37438;55.674;13.074;2023-10-13T13:15:02;9.90;;;5.95;;
20232;SDS011;37438;55.674;13.074;2023-10-13T13:18:12;12.80;;;6.82;;
20232;SDS011;37438;55.674;13.074;2023-10-13T13:21:16;16.17;;;7.50;;
20232;SDS011;37438;55.674;13.074;2023-10-13T13:24:31;9.82;;;6.82;;
20232;SDS011;37438;55.674;13.074;2023-10-13T13:30:40;10.57;;;5.25;;
20232;SDS011;37438;55.674;13.074;2023-10-13T13:33:44;10.70;;;6.30;;
20232;SDS011;37438;55.674;13.074;2023-10-13T13:36:49;9.95;;;5.22;;
20232;SDS011;37438;55.674;13.074;2023-10-13T13:39:56;10.43;;;5.55;;
20232;SDS011;37438;55.674;13.074;2023-10-13T13:43:17;10.93;;;4.97;;
20232;SDS011;37438;55.674;13.074;2023-10-13T13:46:35;9.80;;;4.70;;
20232;SDS011;37438;55.674;13.074;2023-10-13T13:49:45;6.47;;;4.45;;
20232;SDS011;37438;55.674;13.074;2023-10-13T13:52:59;8.50;;;5.20;;
20232;SDS011;37438;55.674;13.074;2023-10-13T13:56:05;11.18;;;5.05;;
20232;SDS011;37438;55.674;13.074;2023-10-13T13:59:10;14.63;;;6.38;;
20232;SDS011;37438;55.674;13.074;2023-10-13T14:02:19;9.88;;;6.30;;
20232;SDS011;37438;55.674;13.074;2023-10-13T14:05:24;11.98;;;6.18;;
20232;SDS011;37438;55.674;13.074;2023-10-13T14:08:31;10.77;;;6.00;;
20232;SDS011;37438;55.674;13.074;2023-10-13T14:11:36;16.63;;;7.85;;
20232;SDS011;37438;55.674;13.074;2023-10-13T14:14:44;19.25;;;6.53;;
20232;SDS011;37438;55.674;13.074;2023-10-13T14:18:00;15.20;;;7.35;;
20232;SDS011;37438;55.674;13.074;2023-10-13T14:21:09;13.88;;;7.47;;
20232;SDS011;37438;55.674;13.074;2023-10-13T14:27:21;16.58;;;7.68;;
20232;SDS011;37438;55.674;13.074;2023-10-13T14:30:30;12.38;;;6.40;;
20232;SDS011;37438;55.674;13.074;2023-10-13T14:33:35;16.00;;;6.97;;
20232;SDS011;37438;55.674;13.074;2023-10-13T14:36:41;18.70;;;7.55;;
20232;SDS011;37438;55.674;13.074;2023-10-13T14:39:55;15.35;;;6.38;;
20232;SDS011;37438;55.674;13.074;2023-10-13T14:43:03;26.27;;;8.13;;
20232;SDS011;37438;55.674;13.074;2023-10-13T14:46:08;23.80;;;10.23;;
20232;SDS011;37438;55.674;13.074;2023-10-13T14:49:13;17.10;;;8.20;;
20232;SDS011;37438;55.674;13.074;2023-10-13T14:52:22;17.27;;;8.57;;
20232;SDS011;37438;55.674;13.074;2023-10-13T14:55:27;18.70;;;7.15;;
20232;SDS011;37438;55.674;13.074;2023-10-13T14:58:43;16.20;;;7.13;;
20232;SDS011;37438;55.674;13.074;2023-10-13T15:01:48;24.77;;;7.25;;
20232;SDS011;37438;55.674;13.074;2023-10-13T15:04:53;15.68;;;8.23;;
20232;SDS011;37438;55.674;13.074;2023-10-13T15:07:58;12.88;;;7.18;;
20232;SDS011;37438;55.674;13.074;2023-10-13T15:11:09;16.98;;;7.75;;
20232;SDS011;37438;55.674;13.074;2023-10-13T15:14:22;21.70;;;7.53;;
20232;SDS011;37438;55.674;13.074;2023-10-13T15:17:27;20.95;;;7.82;;
20232;SDS011;37438;55.674;13.074;2023-10-13T15:20:38;13.73;;;6.55;;
20232;SDS011;37438;55.674;13.074;2023-10-13T15:23:43;20.10;;;8.18;;
20232;SDS011;37438;55.674;13.074;2023-10-13T15:26:48;19.05;;;6.82;;
20232;SDS011;37438;55.674;13.074;2023-10-13T15:29:53;23.08;;;7.35;;
20232;SDS011;37438;55.674;13.074;2023-10-13T15:32:57;16.17;;;7.55;;
20232;SDS011;37438;55.674;13.074;2023-10-13T15:36:02;22.42;;;8.35;;
20232;SDS011;37438;55.674;13.074;2023-10-13T15:39:07;20.17;;;6.63;;
20232;SDS011;37438;55.674;13.074;2023-10-13T15:42:14;19.45;;;7.80;;
20232;SDS011;37438;55.674;13.074;2023-10-13T15:45:18;18.73;;;5.63;;
20232;SDS011;37438;55.674;13.074;2023-10-13T15:48:25;18.83;;;6.68;;
20232;SDS011;37438;55.674;13.074;2023-10-13T15:51:34;20.40;;;6.97;;
20232;SDS011;37438;55.674;13.074;2023-10-13T15:54:42;27.23;;;7.95;;
20232;SDS011;37438;55.674;13.074;2023-10-13T15:57:47;17.95;;;6.45;;
20232;SDS011;37438;55.674;13.074;2023-10-13T16:00:57;22.65;;;6.63;;
20232;SDS011;37438;55.674;13.074;2023-10-13T16:04:01;17.25;;;6.55;;
20232;SDS011;37438;55.674;13.074;2023-10-13T16:07:15;19.55;;;5.50;;
20232;SDS011;37438;55.674;13.074;2023-10-13T16:10:21;16.77;;;5.95;;
20232;SDS011;37438;55.674;13.074;2023-10-13T16:13:26;21.67;;;7.22;;
20232;SDS011;37438;55.674;13.074;2023-10-13T16:16:31;14.07;;;6.47;;
20232;SDS011;37438;55.674;13.074;2023-10-13T16:19:38;19.05;;;5.85;;
20232;SDS011;37438;55.674;13.074;2023-10-13T16:22:44;17.52;;;5.18;;
20232;SDS011;37438;55.674;13.074;2023-10-13T16:25:49;24.10;;;5.45;;
20232;SDS011;37438;55.674;13.074;2023-10-13T16:28:54;18.25;;;6.85;;
20232;SDS011;37438;55.674;13.074;2023-10-13T16:32:01;23.15;;;6.22;;
20232;SDS011;37438;55.674;13.074;2023-10-13T16:35:07;21.23;;;6.05;;
20232;SDS011;37438;55.674;13.074;2023-10-13T16:38:14;16.60;;;6.10;;
20232;SDS011;37438;55.674;13.074;2023-10-13T16:41:19;22.27;;;5.57;;
20232;SDS011;37438;55.674;13.074;2023-10-13T16:44:25;22.58;;;5.65;;
20232;SDS011;37438;55.674;13.074;2023-10-13T16:47:30;14.73;;;4.88;;
20232;SDS011;37438;55.674;13.074;2023-10-13T16:50:35;16.10;;;4.18;;
20232;SDS011;37438;55.674;13.074;2023-10-13T16:53:41;24.05;;;5.57;;
20232;SDS011;37438;55.674;13.074;2023-10-13T16:56:50;17.98;;;5.38;;
20232;SDS011;37438;55.674;13.074;2023-10-13T16:59:59;19.98;;;5.22;;
20232;SDS011;37438;55.674;13.074;2023-10-13T17:03:07;24.15;;;6.95;;
20232;SDS011;37438;55.674;13.074;2023-10-13T17:06:12;23.50;;;6.28;;
20232;SDS011;37438;55.674;13.074;2023-10-13T17:09:18;23.88;;;5.65;;
20232;SDS011;37438;55.674;13.074;2023-10-13T17:15:34;17.85;;;6.45;;
20232;SDS011;37438;55.674;13.074;2023-10-13T17:18:42;19.45;;;5.43;;
20232;SDS011;37438;55.674;13.074;2023-10-13T17:21:48;19.73;;;5.35;;
20232;SDS011;37438;55.674;13.074;2023-10-13T17:24:53;17.58;;;5.68;;
20232;SDS011;37438;55.674;13.074;2023-10-13T17:27:58;13.85;;;4.63;;
20232;SDS011;37438;55.674;13.074;2023-10-13T17:31:03;16.38;;;5.47;;
20232;SDS011;37438;55.674;13.074;2023-10-13T17:34:07;20.30;;;5.97;;
20232;SDS011;37438;55.674;13.074;2023-10-13T17:37:12;16.60;;;5.07;;
20232;SDS011;37438;55.674;13.074;2023-10-13T17:40:16;20.45;;;5.72;;
20232;SDS011;37438;55.674;13.074;2023-10-13T17:43:21;20.77;;;6.03;;
20232;SDS011;37438;55.674;13.074;2023-10-13T17:49:30;23.35;;;5.43;;
20232;SDS011;37438;55.674;13.074;2023-10-13T17:52:34;28.08;;;7.15;;
20232;SDS011;37438;55.674;13.074;2023-10-13T17:55:44;22.88;;;5.72;;
20232;SDS011;37438;55.674;13.074;2023-10-13T17:58:50;18.08;;;5.40;;
20232;SDS011;37438;55.674;13.074;2023-10-13T18:01:57;19.27;;;5.30;;
20232;SDS011;37438;55.674;13.074;2023-10-13T18:05:04;23.58;;;6.18;;
20232;SDS011;37438;55.674;13.074;2023-10-13T18:08:08;22.05;;;6.35;;
20232;SDS011;37438;55.674;13.074;2023-10-13T18:14:17;20.67;;;8.43;;
20232;SDS011;37438;55.674;13.074;2023-10-13T18:17:23;24.65;;;8.73;;
20232;SDS011;37438;55.674;13.074;2023-10-13T18:20:30;26.10;;;10.45;;
20232;SDS011;37438;55.674;13.074;2023-10-13T18:23:35;22.75;;;8.93;;
20232;SDS011;37438;55.674;13.074;2023-10-13T18:26:40;29.17;;;9.10;;
20232;SDS011;37438;55.674;13.074;2023-10-13T18:29:45;22.25;;;9.50;;
20232;SDS011;37438;55.674;13.074;2023-10-13T18:32:50;22.65;;;7.45;;
20232;SDS011;37438;55.674;13.074;2023-10-13T18:35:57;26.05;;;9.13;;
20232;SDS011;37438;55.674;13.074;2023-10-13T18:39:13;25.90;;;8.32;;
20232;SDS011;37438;55.674;13.074;2023-10-13T18:42:22;29.77;;;9.00;;
20232;SDS011;37438;55.674;13.074;2023-10-13T18:45:27;28.67;;;8.18;;
20232;SDS011;37438;55.674;13.074;2023-10-13T18:48:33;23.27;;;7.85;;
20232;SDS011;37438;55.674;13.074;2023-10-13T18:51:38;23.30;;;7.50;;
20232;SDS011;37438;55.674;13.074;2023-10-13T18:54:43;23.95;;;7.60;;
20232;SDS011;37438;55.674;13.074;2023-10-13T18:57:48;27.17;;;7.88;;
20232;SDS011;37438;55.674;13.074;2023-10-13T19:00:53;26.63;;;7.47;;
20232;SDS011;37438;55.674;13.074;2023-10-13T19:03:59;22.48;;;7.13;;
20232;SDS011;37438;55.674;13.074;2023-10-13T19:07:04;21.92;;;8.25;;
20232;SDS011;37438;55.674;13.074;2023-10-13T19:10:09;18.17;;;6.72;;